createdAt,value
2023-05-07T00:00:47.119Z,1.73
2023-05-07T00:03:15.481Z,1.57
2023-05-07T00:05:43.266Z,1.63
2023-05-07T00:08:11.084Z,1.77
2023-05-07T00:10:38.874Z,1.90
2023-05-07T00:13:08.049Z,2.20
2023-05-07T00:15:35.875Z,1.80
2023-05-07T00:18:03.741Z,1.80
2023-05-07T00:20:31.671Z,1.90
2023-05-07T00:22:59.553Z,1.83
2023-05-07T00:25:27.385Z,2.13
2023-05-07T00:27:55.153Z,2.23
2023-05-07T00:30:24.238Z,2.10
2023-05-07T00:32:52.087Z,1.97
2023-05-07T00:35:20.002Z,2.27
2023-05-07T00:37:49.301Z,2.03
2023-05-07T00:40:17.047Z,2.10
2023-05-07T00:42:48.385Z,2.13
2023-05-07T00:45:16.225Z,2.47
2023-05-07T00:47:45.747Z,2.23
2023-05-07T00:50:14.133Z,2.10
2023-05-07T00:52:43.184Z,2.30
2023-05-07T00:55:11.632Z,2.23
2023-05-07T00:57:42.401Z,2.43
2023-05-07T01:00:13.088Z,2.57
2023-05-07T01:02:41.632Z,2.53
2023-05-07T01:05:13.554Z,2.67
2023-05-07T01:07:42.956Z,2.77
2023-05-07T01:10:12.721Z,3.13
2023-05-07T01:12:42.174Z,2.77
2023-05-07T01:15:11.266Z,2.63
2023-05-07T01:17:40.042Z,3.10
2023-05-07T01:20:09.516Z,2.73
2023-05-07T01:22:40.175Z,2.50
2023-05-07T01:25:09.372Z,3.37
2023-05-07T01:27:38.030Z,2.93
2023-05-07T01:30:06.580Z,3.37
2023-05-07T01:32:39.666Z,3.30
2023-05-07T01:35:12.674Z,2.70
2023-05-07T01:37:43.171Z,3.47
2023-05-07T01:40:11.953Z,2.60
2023-05-07T01:42:40.545Z,3.03
2023-05-07T01:45:09.266Z,3.50
2023-05-07T01:47:38.904Z,3.20
2023-05-07T01:50:09.162Z,3.53
2023-05-07T01:52:38.126Z,3.60
2023-05-07T01:55:08.773Z,3.30
2023-05-07T01:57:36.652Z,3.13
2023-05-07T02:00:07.236Z,3.40
2023-05-07T02:02:35.235Z,3.60
2023-05-07T02:05:03.173Z,3.23
2023-05-07T02:07:30.933Z,3.60
2023-05-07T02:09:58.687Z,3.57
2023-05-07T02:12:27.786Z,3.50
2023-05-07T02:14:55.550Z,3.00
2023-05-07T02:17:23.340Z,3.20
2023-05-07T02:19:51.110Z,3.37
2023-05-07T02:22:18.866Z,3.40
2023-05-07T02:24:46.619Z,4.10
2023-05-07T02:27:14.380Z,3.63
2023-05-07T02:29:43.491Z,4.03
2023-05-07T02:32:11.347Z,4.23
2023-05-07T02:34:39.180Z,4.00
2023-05-07T02:37:07.079Z,3.80
2023-05-07T02:39:35.529Z,3.97
2023-05-07T02:42:03.398Z,4.23
2023-05-07T02:44:32.278Z,4.53
2023-05-07T02:47:01.386Z,4.77
2023-05-07T02:49:29.170Z,4.93
2023-05-07T02:51:57.171Z,4.57
2023-05-07T02:54:24.916Z,4.57
2023-05-07T02:56:52.762Z,4.70
2023-05-07T02:59:20.492Z,4.70
2023-05-07T03:01:49.308Z,5.53
2023-05-07T03:04:18.469Z,5.33
2023-05-07T03:06:46.305Z,5.33
2023-05-07T03:09:14.059Z,5.40
2023-05-07T03:11:41.911Z,4.80
2023-05-07T03:14:09.707Z,4.83
2023-05-07T03:16:38.084Z,5.63
2023-05-07T03:19:05.918Z,5.00
2023-05-07T03:21:35.285Z,5.20
2023-05-07T03:24:03.410Z,5.43
2023-05-07T03:26:31.177Z,5.20
2023-05-07T03:28:58.934Z,4.67
2023-05-07T03:31:27.000Z,6.13
2023-05-07T03:33:56.117Z,5.40
2023-05-07T03:36:24.511Z,4.93
2023-05-07T03:38:53.623Z,5.33
2023-05-07T03:41:21.629Z,5.30
2023-05-07T03:43:49.406Z,5.17
2023-05-07T03:46:17.199Z,5.57
2023-05-07T03:48:44.955Z,5.60
2023-05-07T03:51:12.728Z,5.90
2023-05-07T03:53:40.457Z,6.00
2023-05-07T03:56:09.556Z,5.97
2023-05-07T03:58:37.308Z,5.50
2023-05-07T04:01:05.568Z,5.77
2023-05-07T04:03:33.416Z,5.10
2023-05-07T04:06:01.651Z,5.63
2023-05-07T04:08:29.392Z,5.40
2023-05-07T04:10:57.494Z,5.70
2023-05-07T04:13:26.733Z,5.73
2023-05-07T04:15:55.800Z,4.97
2023-05-07T04:18:23.642Z,4.77
2023-05-07T04:20:51.619Z,5.13
2023-05-07T04:23:19.413Z,4.80
2023-05-07T04:25:47.184Z,4.90
2023-05-07T04:28:15.003Z,5.20
2023-05-07T04:30:44.095Z,5.10
2023-05-07T04:33:12.512Z,5.20
2023-05-07T04:35:40.499Z,4.87
2023-05-07T04:38:08.264Z,4.87
2023-05-07T04:40:38.251Z,5.10
2023-05-07T04:43:06.348Z,5.27
2023-05-07T04:45:34.586Z,5.50
2023-05-07T04:48:03.817Z,6.17
2023-05-07T04:50:32.176Z,6.43
2023-05-07T04:52:59.915Z,5.30
2023-05-07T04:55:27.751Z,4.67
2023-05-07T04:57:55.501Z,4.57
2023-05-07T05:00:23.793Z,4.53
2023-05-07T05:02:51.703Z,4.20
2023-05-07T05:05:21.472Z,5.50
2023-05-07T05:07:49.278Z,7.90
2023-05-07T05:10:17.114Z,6.20
2023-05-07T05:12:45.147Z,7.77
2023-05-07T05:15:13.566Z,7.33
2023-05-07T05:17:41.634Z,6.97
2023-05-07T05:20:11.925Z,7.03
2023-05-07T05:22:41.228Z,6.87
2023-05-07T05:25:09.447Z,6.50
2023-05-07T05:27:37.254Z,6.20
2023-05-07T05:30:06.541Z,6.17
2023-05-07T05:32:34.721Z,7.03
2023-05-07T05:35:02.688Z,7.67
2023-05-07T05:37:31.124Z,7.20
2023-05-07T05:40:00.265Z,6.97
2023-05-07T05:42:28.107Z,6.67
2023-05-07T05:44:55.889Z,7.20
2023-05-07T05:47:24.729Z,6.80
2023-05-07T05:49:52.590Z,6.73
2023-05-07T05:52:20.729Z,6.70
2023-05-07T05:54:48.459Z,7.03
2023-05-07T05:57:17.714Z,6.40
2023-05-07T05:59:46.153Z,6.40
2023-05-07T06:02:13.971Z,6.03
2023-05-07T06:04:41.862Z,6.30
2023-05-07T06:07:09.815Z,6.60
2023-05-07T06:09:37.558Z,7.00
2023-05-07T06:12:05.531Z,5.73
2023-05-07T06:14:34.641Z,6.90
2023-05-07T06:17:02.589Z,6.47
2023-05-07T06:19:30.456Z,6.20
2023-05-07T06:21:58.229Z,6.60
2023-05-07T06:24:26.610Z,6.00
2023-05-07T06:26:54.389Z,5.87
2023-05-07T06:29:22.442Z,5.30
2023-05-07T06:31:51.696Z,5.77
2023-05-07T06:34:19.475Z,5.73
2023-05-07T06:36:47.207Z,6.17
2023-05-07T06:39:14.957Z,6.27
2023-05-07T06:41:42.698Z,5.37
2023-05-07T06:44:10.474Z,5.00
2023-05-07T06:46:38.312Z,5.60
2023-05-07T06:49:07.487Z,6.07
2023-05-07T06:51:35.797Z,6.20
2023-05-07T06:54:05.271Z,5.67
2023-05-07T06:56:33.293Z,6.43
2023-05-07T06:59:02.127Z,5.90
2023-05-07T07:01:30.686Z,5.73
2023-05-07T07:03:58.424Z,5.43
2023-05-07T07:06:27.862Z,5.77
2023-05-07T07:08:55.637Z,5.60
2023-05-07T07:11:23.372Z,5.43
2023-05-07T07:13:51.521Z,5.63
2023-05-07T07:16:19.298Z,5.60
2023-05-07T07:18:47.101Z,5.90
2023-05-07T07:21:14.872Z,5.47
2023-05-07T07:23:44.078Z,5.47
2023-05-07T07:26:11.830Z,5.47
2023-05-07T07:28:45.606Z,5.13
2023-05-07T07:31:13.913Z,5.17
2023-05-07T07:33:41.860Z,4.97
2023-05-07T07:36:09.975Z,5.53
2023-05-07T07:38:37.811Z,4.57
2023-05-07T07:41:06.998Z,5.47
2023-05-07T07:43:34.723Z,5.60
2023-05-07T07:46:02.495Z,4.60
2023-05-07T07:48:30.253Z,4.87
2023-05-07T07:50:58.044Z,5.17
2023-05-07T07:53:26.184Z,4.43
2023-05-07T07:55:58.682Z,4.90
2023-05-07T07:58:28.373Z,4.90
2023-05-07T08:00:57.320Z,4.33
2023-05-07T08:03:25.255Z,5.10
2023-05-07T08:05:53.173Z,4.97
2023-05-07T08:08:20.972Z,5.10
2023-05-07T08:10:50.867Z,4.47
2023-05-07T08:13:19.318Z,4.23
2023-05-07T08:15:48.491Z,4.67
2023-05-07T08:18:16.326Z,4.50
2023-05-07T08:20:44.181Z,4.90
2023-05-07T08:23:12.042Z,4.30
2023-05-07T08:25:39.839Z,4.30
2023-05-07T08:28:09.816Z,4.73
2023-05-07T08:30:38.019Z,4.63
2023-05-07T08:33:07.274Z,4.53
2023-05-07T08:35:35.043Z,4.43
2023-05-07T08:38:02.864Z,4.50
2023-05-07T08:40:31.089Z,4.70
2023-05-07T08:42:59.885Z,4.13
2023-05-07T08:45:29.859Z,5.30
2023-05-07T08:48:01.763Z,4.67
2023-05-07T08:50:31.400Z,4.70
2023-05-07T08:52:59.389Z,4.53
2023-05-07T08:55:27.436Z,4.97
2023-05-07T08:57:55.311Z,4.80
2023-05-07T09:00:23.261Z,4.43
2023-05-07T09:02:51.130Z,4.60
2023-05-07T09:05:19.540Z,5.00
2023-05-07T09:07:50.279Z,4.97
2023-05-07T09:10:19.043Z,4.57
2023-05-07T09:12:48.900Z,4.70
2023-05-07T09:15:16.689Z,4.60
2023-05-07T09:17:45.775Z,3.97
2023-05-07T09:20:13.923Z,4.30
2023-05-07T09:22:41.691Z,4.10
2023-05-07T09:25:11.432Z,4.27
2023-05-07T09:27:39.572Z,4.87
2023-05-07T09:30:09.016Z,4.57
2023-05-07T09:32:38.830Z,4.40
2023-05-07T09:35:07.655Z,4.07
2023-05-07T09:37:35.480Z,4.17
2023-05-07T09:40:04.055Z,4.13
2023-05-07T09:42:34.392Z,4.23
2023-05-07T09:45:02.295Z,4.10
2023-05-07T09:47:36.395Z,4.53
2023-05-07T09:50:07.739Z,3.90
2023-05-07T09:52:36.401Z,3.60
2023-05-07T09:55:06.946Z,4.63
2023-05-07T09:57:36.686Z,3.97
2023-05-07T10:00:06.625Z,3.73
2023-05-07T10:02:37.168Z,4.47
2023-05-07T10:05:06.143Z,3.97
2023-05-07T10:07:34.211Z,4.23
2023-05-07T10:10:02.295Z,3.90
2023-05-07T10:12:31.031Z,3.60
2023-05-07T10:15:00.843Z,3.30
2023-05-07T10:17:28.836Z,3.90
2023-05-07T10:19:57.104Z,3.90
2023-05-07T10:22:28.158Z,3.70
2023-05-07T10:24:59.581Z,3.33
2023-05-07T10:27:28.065Z,3.30
2023-05-07T10:30:05.274Z,4.10
2023-05-07T10:32:40.858Z,3.60
2023-05-07T10:35:13.359Z,3.70
2023-05-07T10:37:41.814Z,3.33
2023-05-07T10:40:11.873Z,3.30
2023-05-07T10:42:39.726Z,4.03
2023-05-07T10:45:18.067Z,3.47
2023-05-07T10:48:20.799Z,3.67
2023-05-07T10:51:22.000Z,3.40
2023-05-07T10:53:49.811Z,2.77
2023-05-07T10:56:28.890Z,3.40
2023-05-07T10:58:57.949Z,3.10
2023-05-07T11:01:56.970Z,3.30
2023-05-07T11:04:28.709Z,3.60
2023-05-07T11:07:26.721Z,3.10
2023-05-07T11:10:08.582Z,3.33
2023-05-07T11:12:55.345Z,3.10
2023-05-07T11:15:44.229Z,3.30
2023-05-07T11:18:15.191Z,3.10
2023-05-07T11:20:51.241Z,3.20
2023-05-07T11:24:11.023Z,2.80
2023-05-07T11:26:49.936Z,3.10
2023-05-07T11:29:22.263Z,2.80
2023-05-07T11:31:52.220Z,3.10
2023-05-07T11:34:25.561Z,3.00
2023-05-07T11:36:54.182Z,2.80
2023-05-07T11:39:33.747Z,3.00
2023-05-07T11:42:02.737Z,2.80
2023-05-07T11:44:43.761Z,2.63
2023-05-07T11:47:12.613Z,2.80
2023-05-07T11:49:42.367Z,3.00
2023-05-07T11:52:10.253Z,2.70
2023-05-07T11:54:38.774Z,2.33
2023-05-07T11:57:06.696Z,2.50
2023-05-07T11:59:41.902Z,2.60
2023-05-07T12:02:09.716Z,2.60
2023-05-07T12:04:37.724Z,2.10
2023-05-07T12:07:06.927Z,1.90
2023-05-07T12:09:35.716Z,2.30
2023-05-07T12:12:06.160Z,2.40
2023-05-07T12:14:34.511Z,2.10
2023-05-07T12:17:04.005Z,2.40
2023-05-07T12:19:32.804Z,2.07
2023-05-07T12:22:00.688Z,2.33
2023-05-07T12:24:29.851Z,1.97
2023-05-07T12:26:57.609Z,2.23
2023-05-07T12:29:25.487Z,3.23
2023-05-07T12:31:53.481Z,3.50
2023-05-07T12:34:21.296Z,3.20
2023-05-07T12:36:50.295Z,3.10
2023-05-07T12:39:18.052Z,2.80
2023-05-07T12:41:56.800Z,2.80
2023-05-07T12:44:25.415Z,3.00
2023-05-07T12:46:53.549Z,2.97
2023-05-07T12:49:23.753Z,2.83
2023-05-07T12:51:53.035Z,2.60
2023-05-07T12:54:31.050Z,2.33
2023-05-07T12:57:08.111Z,2.57
2023-05-07T12:59:37.008Z,2.23
2023-05-07T13:02:04.953Z,2.30
2023-05-07T13:04:32.965Z,2.77
2023-05-07T13:07:00.767Z,2.50
2023-05-07T13:09:29.895Z,3.00
2023-05-07T13:11:57.786Z,2.40
2023-05-07T13:14:26.897Z,2.67
2023-05-07T13:16:54.682Z,2.83
2023-05-07T13:19:22.664Z,2.70
2023-05-07T13:21:50.753Z,2.90
2023-05-07T13:24:18.555Z,2.80
2023-05-07T13:26:46.399Z,2.60
2023-05-07T13:29:14.195Z,2.70
2023-05-07T13:31:44.959Z,2.33
2023-05-07T13:34:12.779Z,3.20
2023-05-07T13:36:42.787Z,3.30
2023-05-07T13:39:10.564Z,2.93
2023-05-07T13:41:38.328Z,2.93
2023-05-07T13:44:06.212Z,2.77
2023-05-07T13:46:34.133Z,2.80
2023-05-07T13:49:03.348Z,2.57
2023-05-07T13:51:31.107Z,3.03
2023-05-07T13:53:59.372Z,2.77
2023-05-07T13:56:27.174Z,2.27
2023-05-07T13:58:59.974Z,2.10
2023-05-07T14:01:29.229Z,2.50
2023-05-07T14:03:57.765Z,2.90
2023-05-07T14:06:27.406Z,2.57
2023-05-07T14:08:55.250Z,2.33
2023-05-07T14:11:23.138Z,2.40
2023-05-07T14:13:50.958Z,2.23
2023-05-07T14:16:18.732Z,2.40
2023-05-07T14:18:46.499Z,2.03
2023-05-07T14:21:14.918Z,2.23
2023-05-07T14:23:44.010Z,2.30
2023-05-07T14:26:11.812Z,2.30
2023-05-07T14:28:40.370Z,2.30
2023-05-07T14:31:08.272Z,2.47
2023-05-07T14:33:36.104Z,2.53
2023-05-07T14:36:04.517Z,2.80
2023-05-07T14:38:33.764Z,2.30
2023-05-07T14:41:02.939Z,2.77
2023-05-07T14:43:30.785Z,2.23
2023-05-07T14:45:58.544Z,2.23
2023-05-07T14:48:26.351Z,2.70
2023-05-07T14:50:54.106Z,2.83
2023-05-07T14:53:22.424Z,2.60
2023-05-07T14:55:50.547Z,2.50
2023-05-07T14:58:19.687Z,2.97
2023-05-07T15:00:47.468Z,2.53
2023-05-07T15:03:15.879Z,2.37
2023-05-07T15:05:43.726Z,2.47
2023-05-07T15:08:11.538Z,2.37
2023-05-07T15:10:42.314Z,2.00
2023-05-07T15:13:14.558Z,2.03
2023-05-07T15:15:46.254Z,2.00
2023-05-07T15:18:14.153Z,2.23
2023-05-07T15:20:42.268Z,2.20
2023-05-07T15:23:12.765Z,2.07
2023-05-07T15:25:40.606Z,2.23
2023-05-07T15:28:08.691Z,2.50
2023-05-07T15:30:36.507Z,2.10
2023-05-07T15:33:06.422Z,2.20
2023-05-07T15:35:34.332Z,2.13
2023-05-07T15:38:04.353Z,2.13
2023-05-07T15:40:32.305Z,2.10
2023-05-07T15:43:00.285Z,1.97
2023-05-07T15:45:28.054Z,1.80
2023-05-07T15:47:55.874Z,2.07
2023-05-07T15:50:24.949Z,1.70
2023-05-07T15:52:52.695Z,1.73
2023-05-07T15:55:20.520Z,1.93
2023-05-07T15:57:48.503Z,1.80
2023-05-07T16:00:17.868Z,2.50
2023-05-07T16:02:45.837Z,2.60
2023-05-07T16:05:14.611Z,2.90
2023-05-07T16:07:44.304Z,2.57
2023-05-07T16:10:12.847Z,2.40
2023-05-07T16:12:40.683Z,2.50
2023-05-07T16:15:09.462Z,2.90
2023-05-07T16:17:37.397Z,2.60
2023-05-07T16:20:06.241Z,2.73
2023-05-07T16:22:34.051Z,2.53
2023-05-07T16:25:04.741Z,3.17
2023-05-07T16:27:32.486Z,2.83
2023-05-07T16:30:00.258Z,2.67
2023-05-07T16:32:29.983Z,3.00
2023-05-07T16:34:57.823Z,3.73
2023-05-07T16:37:25.628Z,3.30
2023-05-07T16:39:53.379Z,3.90
2023-05-07T16:42:22.452Z,3.23
2023-05-07T16:44:50.189Z,3.63
2023-05-07T16:47:17.979Z,3.70
2023-05-07T16:49:45.703Z,4.00
2023-05-07T16:52:13.449Z,4.03
2023-05-07T16:54:41.211Z,3.43
2023-05-07T16:57:08.957Z,3.67
2023-05-07T16:59:38.045Z,3.40
2023-05-07T17:02:05.865Z,3.67
2023-05-07T17:04:33.694Z,4.00
2023-05-07T17:07:01.510Z,4.17
2023-05-07T17:09:30.148Z,3.87
2023-05-07T17:11:58.067Z,3.60
2023-05-07T17:14:25.861Z,3.37
2023-05-07T17:16:54.987Z,3.30
2023-05-07T17:19:22.754Z,3.50
2023-05-07T17:21:50.484Z,3.60
2023-05-07T17:24:18.561Z,3.87
2023-05-07T17:26:48.242Z,3.80
2023-05-07T17:29:16.016Z,3.70
2023-05-07T17:31:43.776Z,3.20
2023-05-07T17:34:12.882Z,3.87
2023-05-07T17:36:40.642Z,3.37
2023-05-07T17:39:08.554Z,3.83
2023-05-07T17:41:37.336Z,3.43
2023-05-07T17:44:05.372Z,3.73
2023-05-07T17:46:33.766Z,3.03
2023-05-07T17:49:01.660Z,3.47
2023-05-07T17:51:36.240Z,3.43
2023-05-07T17:54:10.515Z,3.43
2023-05-07T17:56:39.032Z,3.30
2023-05-07T17:59:06.949Z,3.63
2023-05-07T18:01:34.708Z,3.03
2023-05-07T18:04:03.261Z,3.53
2023-05-07T18:06:32.530Z,3.33
2023-05-07T18:09:00.366Z,3.37
2023-05-07T18:11:29.504Z,3.30
2023-05-07T18:13:57.233Z,2.90
2023-05-07T18:16:25.048Z,3.07
2023-05-07T18:18:52.806Z,3.30
2023-05-07T18:21:21.024Z,3.03
2023-05-07T18:23:51.269Z,2.90
2023-05-07T18:26:19.330Z,2.70
2023-05-07T18:28:47.077Z,2.30
2023-05-07T18:31:14.944Z,2.77
2023-05-07T18:33:42.744Z,2.97
2023-05-07T18:36:10.821Z,2.50
2023-05-07T18:38:38.979Z,3.07
2023-05-07T18:41:08.117Z,2.70
2023-05-07T18:43:36.052Z,2.57
2023-05-07T18:46:03.852Z,2.77
2023-05-07T18:48:31.632Z,2.50
2023-05-07T18:50:59.385Z,3.03
2023-05-07T18:53:27.148Z,2.80
2023-05-07T18:55:54.893Z,2.40
2023-05-07T18:58:24.054Z,2.50
2023-05-07T19:00:52.374Z,2.60
2023-05-07T19:03:20.179Z,2.70
2023-05-07T19:05:47.910Z,2.77
2023-05-07T19:08:15.772Z,2.97
2023-05-07T19:10:43.507Z,2.60
2023-05-07T19:13:11.364Z,2.50
2023-05-07T19:15:40.676Z,2.23
2023-05-07T19:18:08.489Z,2.37
2023-05-07T19:20:36.312Z,2.40
2023-05-07T19:23:06.658Z,2.93
2023-05-07T19:25:34.740Z,2.60
2023-05-07T19:28:02.487Z,2.40
2023-05-07T19:30:30.397Z,2.70
2023-05-07T19:33:01.269Z,2.80
2023-05-07T19:35:29.205Z,2.57
2023-05-07T19:37:56.959Z,2.30
2023-05-07T19:40:24.712Z,2.70
2023-05-07T19:42:52.477Z,2.47
2023-05-07T19:45:20.412Z,2.57
2023-05-07T19:47:48.910Z,2.40
2023-05-07T19:50:18.857Z,2.70
2023-05-07T19:52:46.676Z,2.33
2023-05-07T19:55:14.842Z,2.27
2023-05-07T19:57:42.913Z,2.80
2023-05-07T20:00:12.015Z,2.57
2023-05-07T20:02:40.107Z,2.67
2023-05-07T20:05:08.630Z,2.93
2023-05-07T20:07:37.766Z,3.00
2023-05-07T20:10:06.315Z,3.27
2023-05-07T20:12:34.077Z,3.20
2023-05-07T20:15:02.321Z,3.13
2023-05-07T20:17:30.129Z,3.30
2023-05-07T20:19:57.919Z,3.27
2023-05-07T20:22:25.702Z,3.47
2023-05-07T20:24:54.765Z,3.60
2023-05-07T20:27:24.720Z,3.30
2023-05-07T20:29:52.804Z,3.27
2023-05-07T20:32:20.646Z,3.67
2023-05-07T20:34:48.735Z,4.00
2023-05-07T20:37:16.756Z,3.77
2023-05-07T20:39:44.505Z,3.37
2023-05-07T20:42:14.054Z,3.10
2023-05-07T20:44:41.831Z,3.57
2023-05-07T20:47:09.953Z,2.93
2023-05-07T20:49:37.726Z,3.10
2023-05-07T20:52:06.434Z,3.33
2023-05-07T20:54:39.840Z,3.17
2023-05-07T20:57:07.781Z,3.17
2023-05-07T20:59:36.909Z,3.50
2023-05-07T21:02:04.757Z,2.93
2023-05-07T21:04:32.610Z,3.80
2023-05-07T21:07:01.481Z,3.60
2023-05-07T21:09:29.222Z,3.03
2023-05-07T21:11:57.906Z,3.60
2023-05-07T21:14:25.876Z,3.07
2023-05-07T21:16:55.018Z,3.90
2023-05-07T21:19:22.800Z,3.60
2023-05-07T21:21:50.593Z,3.73
2023-05-07T21:24:18.410Z,3.80
2023-05-07T21:26:46.219Z,3.83
2023-05-07T21:29:14.052Z,3.70
2023-05-07T21:31:41.984Z,3.50
2023-05-07T21:34:11.080Z,3.57
2023-05-07T21:36:38.819Z,3.60
2023-05-07T21:39:08.606Z,3.47
2023-05-07T21:41:36.577Z,3.50
2023-05-07T21:44:04.411Z,3.87
2023-05-07T21:46:32.276Z,3.70
2023-05-07T21:49:00.210Z,4.27
2023-05-07T21:51:29.646Z,3.43
2023-05-07T21:53:57.386Z,4.03
2023-05-07T21:56:25.123Z,4.03
2023-05-07T21:58:52.885Z,3.57
2023-05-07T22:01:20.689Z,3.60
2023-05-07T22:03:48.664Z,4.00
2023-05-07T22:06:21.338Z,3.23
2023-05-07T22:08:51.128Z,3.40
2023-05-07T22:11:18.988Z,3.97
2023-05-07T22:13:46.727Z,3.63
2023-05-07T22:16:14.668Z,3.90
2023-05-07T22:18:43.630Z,3.40
2023-05-07T22:21:11.421Z,3.63
2023-05-07T22:23:39.179Z,3.97
2023-05-07T22:26:12.986Z,3.60
2023-05-07T22:28:40.918Z,3.60
2023-05-07T22:31:08.678Z,3.57
2023-05-07T22:33:39.431Z,3.80
2023-05-07T22:36:08.572Z,3.60
2023-05-07T22:38:36.351Z,3.83
2023-05-07T22:41:04.132Z,3.67
2023-05-07T22:43:33.289Z,3.50
2023-05-07T22:46:01.688Z,3.53
2023-05-07T22:48:29.637Z,3.77
2023-05-07T22:50:57.517Z,3.20
2023-05-07T22:53:25.583Z,3.57
2023-05-07T22:55:53.439Z,3.70
2023-05-07T22:58:21.271Z,4.13
2023-05-07T23:00:50.468Z,3.83
2023-05-07T23:03:18.402Z,3.57
2023-05-07T23:05:46.261Z,3.37
2023-05-07T23:08:14.019Z,3.90
2023-05-07T23:10:41.753Z,3.83
2023-05-07T23:13:15.140Z,3.70
2023-05-07T23:15:43.265Z,3.70
2023-05-07T23:18:12.476Z,3.60
2023-05-07T23:20:41.086Z,4.27
2023-05-07T23:23:08.865Z,4.30
2023-05-07T23:25:36.762Z,4.00
2023-05-07T23:28:04.770Z,4.30
2023-05-07T23:30:32.640Z,3.90
2023-05-07T23:33:00.399Z,4.27
2023-05-07T23:35:29.552Z,3.90
2023-05-07T23:37:57.288Z,4.43
2023-05-07T23:40:25.202Z,3.70
2023-05-07T23:42:52.977Z,4.57
2023-05-07T23:45:20.827Z,4.43
2023-05-07T23:47:48.643Z,4.73
2023-05-07T23:50:16.489Z,4.47
2023-05-07T23:52:45.660Z,4.23
2023-05-07T23:55:13.730Z,4.27
2023-05-07T23:57:41.481Z,4.00
